createdAt,value
2023-04-21T00:00:10.532Z,100170
2023-04-21T00:06:01.201Z,100163
2023-04-21T00:11:52.762Z,100166
2023-04-21T00:17:44.694Z,100162
2023-04-21T00:23:38.599Z,100162
2023-04-21T00:29:29.346Z,100155
2023-04-21T00:35:20.595Z,100152
2023-04-21T00:41:12.379Z,100154
2023-04-21T00:47:04.734Z,100158
2023-04-21T00:52:56.719Z,100155
2023-04-21T00:58:47.591Z,100151
2023-04-21T01:04:39.263Z,100150
2023-04-21T01:10:29.841Z,100145
2023-04-21T01:16:22.119Z,100150
2023-04-21T01:22:14.888Z,100145
2023-04-21T01:28:06.447Z,100143
2023-04-21T01:33:58.099Z,100149
2023-04-21T01:39:50.287Z,100142
2023-04-21T01:45:41.647Z,100143
2023-04-21T01:51:33.731Z,100151
2023-04-21T01:57:24.948Z,100154
2023-04-21T02:03:19.945Z,100147
2023-04-21T02:09:09.860Z,100136
2023-04-21T02:15:02.169Z,100147
2023-04-21T02:20:54.113Z,100147
2023-04-21T02:26:47.550Z,100148
2023-04-21T02:32:42.098Z,100147
2023-04-21T02:38:37.019Z,100143
2023-04-21T02:44:28.414Z,100140
2023-04-21T02:50:19.759Z,100144
2023-04-21T02:56:12.137Z,100142
2023-04-21T03:02:05.462Z,100140
2023-04-21T03:07:57.961Z,100150
2023-04-21T03:13:50.409Z,100159
2023-04-21T03:19:41.999Z,100164
2023-04-21T03:25:33.894Z,100163
2023-04-21T03:31:24.626Z,100153
2023-04-21T03:37:17.317Z,100159
2023-04-21T03:43:14.037Z,100169
2023-04-21T03:49:07.793Z,100156
2023-04-21T03:54:59.474Z,100166
2023-04-21T04:00:53.232Z,100158
2023-04-21T04:06:44.682Z,100164
2023-04-21T04:12:36.258Z,100163
2023-04-21T04:18:27.900Z,100165
2023-04-21T04:24:19.390Z,100166
2023-04-21T04:30:11.229Z,100159
2023-04-21T04:36:02.737Z,100155
2023-04-21T04:41:55.362Z,100157
2023-04-21T04:47:47.827Z,100156
2023-04-21T04:53:39.369Z,100161
2023-04-21T04:59:34.064Z,100161
2023-04-21T05:05:25.673Z,100161
2023-04-21T05:11:17.752Z,100164
2023-04-21T05:17:09.630Z,100172
2023-04-21T05:23:01.625Z,100167
2023-04-21T05:28:52.238Z,100175
2023-04-21T05:34:41.995Z,100178
2023-04-21T05:40:31.447Z,100177
2023-04-21T05:46:23.270Z,100179
2023-04-21T05:52:15.811Z,100182
2023-04-21T05:58:06.736Z,100182
2023-04-21T06:03:59.113Z,100188
2023-04-21T06:09:51.959Z,100192
2023-04-21T06:15:43.692Z,100175
2023-04-21T06:21:34.875Z,100162
2023-04-21T06:27:27.188Z,100171
2023-04-21T06:33:19.120Z,100171
2023-04-21T06:39:10.821Z,100175
2023-04-21T06:45:02.572Z,100162
2023-04-21T06:50:54.567Z,100161
2023-04-21T06:56:46.506Z,100155
2023-04-21T07:02:39.365Z,100156
2023-04-21T07:08:31.475Z,100150
2023-04-21T07:14:24.449Z,100149
2023-04-21T07:20:16.164Z,100151
2023-04-21T07:26:10.143Z,100155
2023-04-21T07:32:04.319Z,100161
2023-04-21T07:37:56.813Z,100167
2023-04-21T07:43:50.438Z,100163
2023-04-21T07:49:43.980Z,100168
2023-04-21T07:55:36.743Z,100161
2023-04-21T08:01:27.324Z,100166
2023-04-21T08:07:18.743Z,100163
2023-04-21T08:13:10.681Z,100162
2023-04-21T08:19:02.099Z,100167
2023-04-21T08:24:51.302Z,100157
2023-04-21T08:30:41.489Z,100155
2023-04-21T08:36:36.904Z,100151
2023-04-21T08:42:27.155Z,100152
2023-04-21T08:48:18.741Z,100162
2023-04-21T08:54:09.957Z,100154
2023-04-21T09:00:08.257Z,100149
2023-04-21T09:06:02.855Z,100148
2023-04-21T09:11:58.749Z,100149
2023-04-21T09:17:53.956Z,100150
2023-04-21T09:23:49.527Z,100145
2023-04-21T09:29:43.874Z,100134
2023-04-21T09:35:36.761Z,100122
2023-04-21T09:41:30.215Z,100114
2023-04-21T09:47:25.783Z,100109
2023-04-21T09:53:19.248Z,100099
2023-04-21T09:59:13.193Z,100091
2023-04-21T10:05:06.073Z,100090
2023-04-21T10:10:59.611Z,100089
2023-04-21T10:16:52.833Z,100082
2023-04-21T10:22:45.836Z,100069
2023-04-21T10:35:29.732Z,100057
2023-04-21T15:07:06.687Z,99744
2023-04-21T15:12:58.664Z,99747
2023-04-21T15:18:52.217Z,99736
2023-04-21T15:24:43.349Z,99718
2023-04-21T15:30:47.155Z,99713
2023-04-21T15:36:42.705Z,99702
2023-04-21T15:42:40.959Z,99697
2023-04-21T15:48:32.811Z,99693
2023-04-21T15:54:24.868Z,99694
2023-04-21T16:00:18.533Z,99683
2023-04-21T16:06:29.125Z,99674
2023-04-21T16:12:23.390Z,99662
2023-04-21T16:18:15.086Z,99653
2023-04-21T16:24:13.623Z,99660
2023-04-21T16:30:08.321Z,99650
2023-04-21T16:36:08.538Z,99640
2023-04-21T16:42:11.320Z,99639
2023-04-21T16:48:07.787Z,99637
2023-04-21T16:54:02.252Z,99641
2023-04-21T16:59:53.580Z,99623
2023-04-21T17:05:45.104Z,99617
2023-04-21T17:11:40.223Z,99619
2023-04-21T17:17:31.138Z,99618
2023-04-21T17:23:21.889Z,99629
2023-04-21T17:29:15.331Z,99651
2023-04-21T17:35:05.520Z,99638
2023-04-21T17:40:54.882Z,99639
2023-04-21T17:46:45.644Z,99641
2023-04-21T17:52:38.111Z,99646
2023-04-21T17:58:29.436Z,99638
2023-04-21T18:04:22.039Z,99638
2023-04-21T18:10:12.839Z,99619
2023-04-21T18:16:06.009Z,99644
2023-04-21T18:21:59.274Z,99661
2023-04-21T18:27:51.966Z,99680
2023-04-21T18:33:42.752Z,99696
2023-04-21T18:39:35.206Z,99725
2023-04-21T18:45:27.048Z,99755
2023-04-21T18:51:18.764Z,99770
2023-04-21T18:57:10.841Z,99753
2023-04-21T19:03:03.204Z,99760
2023-04-21T19:08:56.118Z,99747
2023-04-21T19:14:52.742Z,99719
2023-04-21T19:20:44.305Z,99675
2023-04-21T19:26:36.226Z,99689
2023-04-21T19:32:27.724Z,99692
2023-04-21T19:38:20.500Z,99695
2023-04-21T19:44:17.769Z,99687
2023-04-21T19:50:27.726Z,99686
2023-04-21T19:56:21.522Z,99690
2023-04-21T20:02:31.457Z,99707
2023-04-21T20:08:27.163Z,99710
2023-04-21T20:14:21.069Z,99707
2023-04-21T20:20:15.345Z,99703
2023-04-21T20:26:09.754Z,99699
2023-04-21T20:32:02.285Z,99695
2023-04-21T20:38:00.161Z,99703
2023-04-21T20:43:54.808Z,99702
2023-04-21T20:49:52.032Z,99706
2023-04-21T21:03:11.213Z,99703
2023-04-21T21:09:16.560Z,99709
2023-04-21T21:15:09.792Z,99719
2023-04-21T21:21:15.856Z,99714
2023-04-21T21:27:18.129Z,99712
2023-04-21T21:33:09.511Z,99712
2023-04-21T21:39:01.324Z,99710
2023-04-21T21:44:53.234Z,99698
2023-04-21T21:50:55.813Z,99695
2023-04-21T21:56:51.022Z,99695
2023-04-21T22:02:57.794Z,99687
2023-04-21T22:08:50.453Z,99678
2023-04-21T22:14:56.575Z,99681
2023-04-21T22:20:52.795Z,99686
2023-04-21T22:26:59.204Z,99694
2023-04-21T22:33:01.399Z,99695
2023-04-21T22:34:46.058Z,99690
2023-04-21T22:40:39.590Z,99691
2023-04-21T22:53:02.536Z,99687
2023-04-21T22:59:13.785Z,99683
2023-04-21T23:17:58.644Z,99681
2023-04-21T23:24:12.318Z,99679
2023-04-21T23:30:48.563Z,99683
2023-04-21T23:37:15.263Z,99673
2023-04-21T23:44:35.551Z,99671
2023-04-21T23:50:44.244Z,99675
2023-04-21T23:56:50.959Z,99677
